• Join FlightAware (Why Join?)
  • Login
  • US Flag 
05:44AM EDT


 

Airport Tracker/Info


-or-


 

Live Flight TrackerFlight Track Log ✈ GJS3707 ✈ 16-Jul-2013 ✈ KORD - KBOI

Flight Track Log - Related Links

Times and Time Zones

All times are in EDT time to prevent confusion due to time zone crossing. See the GJS3707 flight status page for this flight to view local times or setup timezone preferences in your user account.

Time Position Orientation Groundspeed Altitude Reporting Facility
EDT Latitude Longitude Course Direction KTS MPH feet Rate Location/Type
10:51AM 42.0000 -87.9500 270° West 170 196 1,600  Level Chicago TRACON
10:52AM 42.0000 -88.0167 270° West 204 235 3,300 1,740 Climbing Chicago TRACON
10:53AM 41.9836 -88.1597 261° West 230 265 6,500 1,920 Climbing Chicago Center
10:54AM 41.9667 -88.5121 270° West  Level FlightAware Approximate
10:54AM 41.9769 -88.2619 265° West 275 316 8,800  Level Chicago Center
10:55AM 41.9668 -88.6651 270° West  Level FlightAware Approximate
10:55AM 41.9742 -88.3908 268° West 288 331 11,100  Level Chicago Center
10:56AM 41.9668 -88.8181 270° West  Level FlightAware Approximate
10:56AM 42.0106 -88.5047 293° West 330 380 12,400  Level Chicago Center
10:57AM 42.0514 -88.6214 295° West 343 395 14,000 1,560 Climbing Chicago Center
10:58AM 42.0556 -88.7542 272° West 361 415 15,700 1,620 Climbing Chicago Center
11:00AM 42.0575 -88.8856 271° West 357 411 17,400 1,380 Climbing Chicago Center
11:01AM 42.0644 -89.0469 273° West 362 417 18,600 1,140 Climbing Chicago Center
11:02AM 42.0683 -89.1867 272° West 374 430 19,800 1,200 Climbing Chicago Center
11:03AM 42.0711 -89.3317 272° West 388 447 21,100 1,200 Climbing Chicago Center
11:04AM 42.0742 -89.4792 272° West 391 450 22,400 1,140 Climbing Chicago Center
11:05AM 42.0800 -89.6558 273° West 402 463 23,500 1,200 Climbing Chicago Center
11:06AM 42.0833 -89.8119 272° West 413 475 24,900 1,140 Climbing Chicago Center
11:07AM 42.0886 -89.9411 273° West 410 472 25,900 1,080 Climbing Chicago Center
11:08AM 42.0947 -90.1286 273° West 418 481 27,200 1,020 Climbing Chicago Center
11:09AM 42.1008 -90.2867 273° West 424 488 28,100 780 Climbing Chicago Center
11:10AM 42.1089 -90.4481 274° West 432 497 28,900 780 Climbing Chicago Center
11:11AM 42.1164 -90.6117 274° West 439 505 29,800 780 Climbing Chicago Center
11:12AM 42.1242 -90.7781 274° West 446 513 30,600 780 Climbing Chicago Center
11:13AM 42.1358 -90.9831 274° West 458 527 31,500 780 Climbing Chicago Center
11:14AM 42.1442 -91.1553 274° West 461 531 32,300 780 Climbing Chicago Center
11:15AM 42.1550 -91.3269 275° West 461 531 33,200 720 Climbing Chicago Center
11:16AM 42.1678 -91.4983 276° West 460 529 33,900 660 Climbing Chicago Center
11:17AM 42.2253 -91.6517 297° West 459 528 34,600 660 Climbing Chicago Center
11:18AM 42.3008 -91.7933 306° West 464 534 35,300 660 Climbing Chicago Center
11:19AM 42.3911 -91.9633 306° West 463 533 36,000 300 Climbing Chicago Center
11:20AM 42.4644 -92.1031 305° West 457 526 36,000  Level Chicago Center
11:21AM 42.5369 -92.2414 305° West 452 520 36,000  Level Chicago Center
11:22AM 42.6067 -92.3756 305° West 439 505 36,000  Level Chicago Center
11:23AM 42.6778 -92.5128 305° West 443 510 36,000  Level Chicago Center
11:24AM 42.7497 -92.6536 305° West 454 522 36,000  Level Chicago Center
11:25AM 42.8383 -92.8242 305° West 462 532 36,000  Level Chicago Center
11:26AM 42.8969 -92.9422 304° West 461 531 36,000  Level Minneapolis Center
11:27AM 42.9836 -93.1117 305° West 463 533 36,000  Level Minneapolis Center
11:28AM 43.0542 -93.2536 304° West 458 527 36,000  Level Minneapolis Center
11:29AM 43.1103 -93.4056 297° West 452 520 36,000  Level Minneapolis Center
11:30AM 43.1356 -93.5717 282° West 451 519 36,000  Level Minneapolis Center
11:31AM 43.1639 -93.7319 284° West 440 506 36,000  Level Minneapolis Center
11:32AM 43.1972 -93.9239 283° West 436 502 36,000  Level Minneapolis Center
11:34AM 43.2244 -94.0825 283° West 434 499 36,000  Level Minneapolis Center
11:35AM 43.2508 -94.2386 283° West 428 493 36,000  Level Minneapolis Center
11:36AM 43.2794 -94.4031 283° West 423 487 36,000  Level Minneapolis Center
11:37AM 43.3050 -94.5628 282° West 428 493 36,000  Level Minneapolis Center
11:38AM 43.3325 -94.7253 283° West 435 501 36,000  Level Minneapolis Center
11:39AM 43.3597 -94.8919 283° West 444 511 36,000  Level Minneapolis Center
11:40AM 43.3914 -95.0914 282° West 446 513 36,000  Level Minneapolis Center
11:41AM 43.4189 -95.2575 283° West 446 513 36,000  Level Minneapolis Center
11:42AM 43.4450 -95.4219 282° West 443 510 36,000  Level Minneapolis Center
11:43AM 43.4697 -95.5819 282° West 433 498 36,000  Level Minneapolis Center
11:44AM 43.4947 -95.7414 282° West 428 493 36,000  Level Minneapolis Center
11:45AM 43.5189 -95.8975 282° West 421 484 36,000  Level Minneapolis Center
11:46AM 43.5478 -96.0883 282° West 421 484 36,000  Level Minneapolis Center
11:47AM 43.5725 -96.2508 282° West 426 490 36,000  Level Minneapolis Center
11:48AM 43.5964 -96.4178 281° West 436 502 36,000  Level Minneapolis Center
11:49AM 43.6197 -96.5856 281° West 440 506 36,000  Level Minneapolis Center
11:50AM 43.6444 -96.7506 282° West 440 506 36,000  Level Minneapolis Center
11:51AM 43.6611 -96.9156 278° West 437 503 36,000  Level Minneapolis Center
11:52AM 43.6731 -97.0797 276° West 432 497 36,000  Level Minneapolis Center
11:53AM 43.6875 -97.2775 276° West 431 496 36,000  Level Minneapolis Center
11:54AM 43.6989 -97.4411 276° West 429 494 36,000  Level Minneapolis Center
11:55AM 43.7117 -97.6050 276° West 429 494 36,000  Level Minneapolis Center
11:56AM 43.7239 -97.7675 276° West 427 491 36,000  Level Minneapolis Center
11:58AM 43.7332 -97.9614 274° West  Level FlightAware Approximate
11:58AM 43.7472 -98.0911 274° West 424 488 36,000  Level Minneapolis Center
11:59AM 43.7608 -98.2844 276° West 422 486 36,000  Level Minneapolis Center
12:00PM 43.7706 -98.4458 275° West 421 484 36,000  Level Minneapolis Center
12:01PM 43.7819 -98.6058 276° West 420 483 36,000  Level Minneapolis Center
12:02PM 43.7911 -98.7650 275° West 417 480 36,000  Level Minneapolis Center
12:04PM 43.8017 -98.9256 275° West 416 479 36,000  Level Minneapolis Center
12:05PM 43.8119 -99.0906 275° West 424 488 36,000  Level Minneapolis Center
12:06PM 43.8228 -99.2969 274° West 441 507 36,000  Level Minneapolis Center
12:07PM 43.8314 -99.4686 274° West 444 511 36,000  Level Minneapolis Center
12:08PM 43.8414 -99.6381 275° West 442 509 36,000  Level Minneapolis Center
12:09PM 43.8494 -99.8086 274° West 443 510 36,000  Level Minneapolis Center
12:10PM 43.8597 -99.9786 275° West 443 510 36,000  Level Minneapolis Center
12:11PM 43.8681 -100.1475 274° West 439 505 36,000  Level Minneapolis Center
12:12PM 43.8761 -100.3125 274° West 435 501 36,000  Level Minneapolis Center
12:13PM 43.8858 -100.5122 274° West 433 498 36,000  Level Minneapolis Center
12:14PM 43.8922 -100.6769 273° West 431 496 36,000  Level Minneapolis Center
12:15PM 43.9000 -100.8433 274° West 430 495 36,000  Level Minneapolis Center
12:16PM 43.9072 -101.0108 273° West 431 496 36,000  Level Minneapolis Center
12:17PM 43.9150 -101.1808 274° West 435 501 36,000  Level Minneapolis Center
12:18PM 43.9214 -101.3486 273° West 436 502 36,000  Level Minneapolis Center
12:19PM 43.9278 -101.5142 273° West 433 498 36,000  Level Minneapolis Center
12:20PM 43.9344 -101.7131 273° West 432 497 36,000  Level Minneapolis Center
12:21PM 43.9408 -101.8803 273° West 432 497 36,000  Level Minneapolis Center
12:22PM 43.9464 -102.0753 272° West 426 490 36,000  Level Denver Center
12:23PM 43.9522 -102.2419 273° West 430 495 36,000  Level Denver Center
12:24PM 43.9592 -102.4047 273° West 426 490 36,000  Level Denver Center
12:25PM 43.9644 -102.5661 273° West 422 486 36,000  Level Denver Center
12:26PM 43.9689 -102.7272 272° West 419 482 36,000  Level Denver Center
12:27PM 43.9750 -102.9047 273° West 423 487 36,000  Level Denver Center
12:29PM 43.9786 -103.0872 272° West 425 489 36,000  Level Denver Center
12:30PM 43.9822 -103.2469 272° West 430 495 36,000  Level Denver Center
12:31PM 43.9861 -103.4331 272° West 431 496 36,000  Level Denver Center
12:32PM 43.9878 -103.5931 271° West 433 498 36,000  Level Denver Center
12:33PM 43.9917 -103.7758 272° West 428 493 36,000  Level Denver Center
12:34PM 43.9947 -103.9311 272° West 424 488 36,000  Level Denver Center
12:35PM 43.9956 -104.1078 270° West 414 476 36,000  Level Denver Center
12:36PM 43.9975 -104.2597 271° West 412 474 36,000  Level Denver Center
12:37PM 43.9992 -104.4339 271° West 409 471 36,000  Level Denver Center
12:38PM 44.0017 -104.5839 271° West 407 468 36,000  Level Denver Center
12:39PM 44.0019 -104.7606 270° West 408 470 36,000  Level Denver Center
12:40PM 44.0028 -104.9136 270° West 411 473 36,000  Level Denver Center
12:41PM 44.0036 -105.0928 270° West 414 476 36,000  Level Denver Center
12:42PM 44.0039 -105.2450 270° West 414 476 36,000  Level Denver Center
12:43PM 44.0042 -105.3981 270° West 414 476 36,000  Level Denver Center
12:44PM 44.0050 -105.5744 270° West 413 475 36,000  Level Denver Center
12:45PM 44.0047 -105.7264 270° West 412 474 36,000  Level Denver Center
12:46PM 44.0042 -105.9019 270° West 410 472 36,000  Level Denver Center
12:47PM 44.0028 -106.0531 269° West 410 472 36,000  Level Denver Center
12:48PM 44.0036 -106.1792 271° West 408 470 36,000  Level Salt Lake Center
12:49PM 44.0031 -106.3286 270° West 407 468 36,000  Level Salt Lake Center
12:50PM 44.0033 -106.5039 270° West 407 468 36,000  Level Salt Lake Center
12:51PM 44.0094 -106.6531 273° West 408 470 36,000  Level Salt Lake Center
12:52PM 44.0161 -106.8011 274° West 405 466 36,000  Level Salt Lake Center
12:53PM 44.0225 -106.9739 273° West 404 465 36,000  Level Salt Lake Center
12:54PM 44.0275 -107.1225 273° West 404 465 36,000  Level Salt Lake Center
12:55PM 44.0328 -107.2967 272° West 405 466 36,000  Level Salt Lake Center
12:56PM 44.0383 -107.4478 273° West 407 468 36,000  Level Salt Lake Center
12:57PM 44.0433 -107.6217 272° West 407 468 36,000  Level Salt Lake Center
12:58PM 44.0481 -107.7714 273° West 407 468 36,000  Level Salt Lake Center
12:59PM 44.0519 -107.9478 272° West 409 471 36,000  Level Salt Lake Center
01:00PM 44.0569 -108.0967 273° West 404 465 36,000  Level Salt Lake Center
01:01PM 44.0608 -108.2731 272° West 408 470 36,000  Level Salt Lake Center
01:02PM 44.0650 -108.4200 272° West 409 471 36,000  Level Salt Lake Center
01:03PM 44.0689 -108.5978 272° West 410 472 36,000  Level Salt Lake Center
01:04PM 44.0706 -108.7489 271° West 409 471 36,000  Level Salt Lake Center
01:05PM 44.0753 -108.9272 272° West 413 475 36,000  Level Salt Lake Center
01:06PM 44.0775 -109.0783 271° West 411 473 36,000  Level Salt Lake Center
01:07PM 44.0803 -109.2536 271° West 406 467 36,000  Level Salt Lake Center
01:08PM 44.0831 -109.4031 272° West 405 466 36,000  Level Salt Lake Center
01:09PM 44.0847 -109.5514 271° West 403 464 36,000  Level Salt Lake Center
01:10PM 44.0869 -109.7231 271° West 398 458 36,000  Level Salt Lake Center
01:12PM 44.0881 -109.8708 271° West 399 459 36,000  Level Salt Lake Center
01:13PM 44.0906 -110.0417 271° West 397 457 36,000  Level Salt Lake Center
01:14PM 44.0919 -110.1875 271° West 395 455 36,000  Level Salt Lake Center
01:15PM 44.0928 -110.3575 270° West 393 452 36,000  Level Salt Lake Center
01:16PM 44.0931 -110.5025 270° West 393 452 36,000  Level Salt Lake Center
01:17PM 44.0936 -110.6736 270° West 395 455 36,000  Level Salt Lake Center
01:18PM 44.0944 -110.8217 271° West 398 458 36,000  Level Salt Lake Center
01:19PM 44.0936 -110.9711 270° West 401 461 36,000  Level Salt Lake Center
01:20PM 44.0936 -111.1450 270° West 402 463 36,000  Level Salt Lake Center
01:21PM 44.0947 -111.2956 271° West 404 465 36,000  Level Salt Lake Center
01:22PM 44.0928 -111.4706 269° West 404 465 36,000  Level Salt Lake Center
01:23PM 44.0922 -111.6231 270° West 408 470 36,000  Level Salt Lake Center
01:24PM 44.0919 -111.8000 270° West 408 470 36,000  Level Salt Lake Center
01:25PM 44.0903 -111.9514 269° West 408 470 36,000  Level Salt Lake Center
01:26PM 44.0892 -112.1022 269° West 407 468 36,000  Level Salt Lake Center
01:27PM 44.0808 -112.2767 266° West 405 466 36,000  Level Salt Lake Center
01:28PM 44.0625 -112.4239 260° West 403 464 36,000  Level Salt Lake Center
01:29PM 44.0447 -112.5967 262° West 404 465 36,000  Level Salt Lake Center
01:30PM 44.0261 -112.7436 260° West 403 464 36,000  Level Salt Lake Center
01:31PM 44.0061 -112.9136 261° West 401 461 36,000  Level Salt Lake Center
01:32PM 43.9892 -113.0603 261° West 402 463 36,000  Level Salt Lake Center
01:33PM 43.9686 -113.2306 261° West 402 463 36,000  Level Salt Lake Center
01:34PM 43.9511 -113.3753 261° West 399 459 36,000  Level Salt Lake Center
01:35PM 43.9331 -113.5203 260° West 397 457 36,000  Level Salt Lake Center
01:36PM 43.9122 -113.6917 260° West 398 458 36,000  Level Salt Lake Center
01:37PM 43.8922 -113.8356 259° West 401 461 36,000  Level Salt Lake Center
01:38PM 43.8733 -113.9947 260° West 388 447 36,000 -480 Level Salt Lake Center
01:39PM 43.8590 -114.0118 260° West  Level FlightAware Approximate
01:39PM 43.8506 -114.1633 259° West 398 458 35,100  Level Salt Lake Center
01:40PM 43.8322 -114.3069 260° West 395 455 34,100 -1,500 Descending Salt Lake Center
01:41PM 43.8142 -114.4503 260° West 394 453 32,100 -2,460 Descending Salt Lake Center
01:43PM 43.7928 -114.6161 260° West 390 449 29,100 -2,700 Descending Salt Lake Center
01:44PM 43.7736 -114.7531 259° West 378 435 26,600 -2,640 Descending Salt Lake Center
01:45PM 43.7528 -114.9078 259° West 366 421 23,700 -2,520 Descending Salt Lake Center
01:46PM 43.7347 -115.0353 259° West 352 405 21,500 -2,280 Descending Salt Lake Center
01:47PM 43.7150 -115.1764 259° West 334 384 19,100 -2,220 Descending Salt Lake Center
01:48PM 43.6978 -115.2944 259° West 328 377 17,000 -2,160 Descending Salt Lake Center
01:49PM 43.6803 -115.4286 260° West 320 368 14,700 -2,100 Descending Salt Lake Center
01:50PM 43.6625 -115.5503 259° West 314 361 12,700 -1,800 Descending Salt Lake Center
01:51PM 43.6464 -115.6611 259° West 308 354 11,100 -1,380 Descending Salt Lake Center
01:52PM 43.6253 -115.7725 255° West 294 338 9,900 -1,200 Descending Salt Lake Center
01:53PM 43.5581 -115.8286 211° Southwest 275 316 8,700 -1,080 Descending Salt Lake Center
01:54PM 43.5083 -115.8972 225° Southwest 254 292 7,700 -1,020 Descending Salt Lake Center